Time;durP1;ratioP1;P1;durP2;ratioP2;P2;SDS_P1;SDS_P2;PMS_P1;PMS_P2;Temp;Humidity;BMP_temperature;BMP_pressure;BME280_temperature;BME280_humidity;BME280_pressure;Samples;Min_cycle;Max_cycle;Signal;HPM_P1;HPM_P2
2022/04/17 00:00:39;;;;;;;13.10;6.40;;;;;;;3.60;65.92;102186.56;5058570;28;20364;-63
2022/04/17 00:03:06;;;;;;;17.10;8.05;;;;;;;3.60;65.89;102183.97;5069994;28;20111;-63
2022/04/17 00:05:32;;;;;;;17.08;8.65;;;;;;;3.59;65.64;102182.19;5055894;28;20040;-63
2022/04/17 00:07:58;;;;;;;19.15;9.77;;;;;;;3.58;65.86;102183.00;5070633;28;20208;-63
2022/04/17 00:10:23;;;;;;;16.25;8.07;;;;;;;3.53;66.15;102178.50;5075857;28;20037;-64
2022/04/17 00:12:48;;;;;;;16.60;8.60;;;;;;;3.53;65.82;102174.16;5066096;28;20054;-65
2022/04/17 00:15:14;;;;;;;14.10;8.32;;;;;;;3.50;65.77;102166.25;5055552;28;20037;-65
2022/04/17 00:17:42;;;;;;;16.77;8.45;;;;;;;3.48;66.29;102173.13;5055690;28;20449;-65
2022/04/17 00:20:14;;;;;;;14.55;7.15;;;;;;;3.51;65.67;102164.53;5055471;28;20057;-65
2022/04/17 00:22:40;;;;;;;13.95;6.97;;;;;;;3.43;66.01;102170.38;5055595;28;20044;-65
2022/04/17 00:25:07;;;;;;;15.02;6.82;;;;;;;3.44;65.73;102163.44;5055596;28;20041;-66
2022/04/17 00:27:33;;;;;;;11.57;6.32;;;;;;;3.43;65.86;102159.06;5055445;28;20048;-66
2022/04/17 00:29:59;;;;;;;12.32;6.07;;;;;;;3.42;65.81;102162.50;5054918;28;20037;-64
2022/04/17 00:32:24;;;;;;;12.45;6.80;;;;;;;3.43;65.54;102169.47;5054976;28;20125;-65
2022/04/17 00:34:49;;;;;;;10.00;5.47;;;;;;;3.40;65.79;102161.56;5055429;28;20392;-65
2022/04/17 00:37:15;;;;;;;13.00;6.18;;;;;;;3.40;65.90;102169.38;5070973;28;20040;-65
2022/04/17 00:39:40;;;;;;;12.90;5.65;;;;;;;3.51;65.94;102160.25;5074328;28;20511;-63
2022/04/17 00:42:07;;;;;;;8.90;5.18;;;;;;;3.64;65.35;102162.44;5064641;28;20033;-64
2022/04/17 00:44:34;;;;;;;14.05;6.47;;;;;;;3.73;64.91;102159.28;5064293;28;20120;-64
2022/04/17 00:46:59;;;;;;;13.32;5.90;;;;;;;3.84;64.57;102157.94;5068043;28;20044;-64
2022/04/17 00:49:25;;;;;;;11.82;5.97;;;;;;;3.94;64.37;102156.50;5055213;28;20025;-64
2022/04/17 00:51:51;;;;;;;9.23;5.38;;;;;;;3.98;63.94;102153.19;5059484;28;20024;-64
2022/04/17 00:54:19;;;;;;;11.32;5.03;;;;;;;3.95;64.18;102148.78;5063098;28;20392;-64
2022/04/17 00:56:47;;;;;;;8.18;4.85;;;;;;;4.08;63.83;102157.00;5057213;28;20045;-64
2022/04/17 00:59:13;;;;;;;8.30;4.55;;;;;;;4.11;63.44;102163.19;5055016;28;20137;-65
2022/04/17 01:01:39;;;;;;;7.80;4.78;;;;;;;4.10;63.70;102153.59;5074809;28;20043;-64
2022/04/17 01:04:06;;;;;;;7.70;4.07;;;;;;;4.15;63.41;102162.44;5075001;28;20029;-64
2022/04/17 01:06:32;;;;;;;8.43;4.70;;;;;;;4.18;63.20;102154.72;5061900;28;20032;-63
2022/04/17 01:09:01;;;;;;;10.52;5.45;;;;;;;4.20;63.29;102147.84;5055648;28;20041;-65
2022/04/17 01:11:27;;;;;;;13.88;6.72;;;;;;;4.25;63.15;102144.53;5054703;28;20029;-64
2022/04/17 01:13:54;;;;;;;7.88;4.68;;;;;;;4.26;63.08;102138.47;5058458;28;20032;-65
2022/04/17 01:16:23;;;;;;;9.55;4.97;;;;;;;4.22;63.17;102137.50;5065248;28;20044;-64
2022/04/17 01:19:01;;;;;;;7.78;4.03;;;;;;;4.29;63.17;102130.78;5074094;28;20072;-64
2022/04/17 01:21:27;;;;;;;9.27;4.88;;;;;;;4.33;62.93;102137.84;5034456;28;20060;-64
2022/04/17 01:26:58;;;;;;;11.32;5.07;;;;;;;4.13;63.72;102127.69;5049354;28;20048;-63
2022/04/17 01:29:38;;;;;;;9.55;4.75;;;;;;;4.13;63.84;102134.59;5054904;28;20028;-64
2022/04/17 01:32:07;;;;;;;10.20;4.80;;;;;;;4.14;63.72;102136.34;5038110;28;20151;-63
2022/04/17 01:34:32;;;;;;;8.32;4.35;;;;;;;4.19;63.58;102138.28;5069919;28;20082;-64
2022/04/17 01:36:59;;;;;;;10.02;5.07;;;;;;;4.25;63.61;102134.13;5071621;28;20036;-64
2022/04/17 01:39:25;;;;;;;9.93;4.65;;;;;;;4.24;63.40;102135.84;5068306;28;20054;-65
2022/04/17 01:41:52;;;;;;;9.75;5.43;;;;;;;4.25;63.30;102134.13;5061389;28;20464;-65
2022/04/17 01:44:17;;;;;;;11.07;5.30;;;;;;;4.15;63.39;102128.63;5053820;28;20041;-65
2022/04/17 01:46:44;;;;;;;10.07;5.35;;;;;;;4.05;63.62;102136.06;5053692;28;20043;-65
2022/04/17 01:49:11;;;;;;;11.45;5.90;;;;;;;4.02;63.83;102142.03;5053983;28;20029;-65
2022/04/17 01:51:38;;;;;;;13.32;6.10;;;;;;;3.98;64.08;102136.69;5053701;28;20043;-66
2022/04/17 01:54:11;;;;;;;11.90;5.90;;;;;;;3.91;64.24;102138.19;5053799;28;20033;-66
2022/04/17 01:56:38;;;;;;;12.10;5.95;;;;;;;3.84;64.67;102138.84;5053617;28;20025;-65
2022/04/17 01:59:05;;;;;;;12.05;6.05;;;;;;;3.77;64.55;102131.66;5053776;28;20052;-66
2022/04/17 02:01:32;;;;;;;9.88;5.30;;;;;;;3.58;65.40;102136.22;5069331;28;20119;-66
2022/04/17 02:03:58;;;;;;;10.23;5.68;;;;;;;3.57;65.16;102130.97;5053803;28;20103;-66
2022/04/17 02:06:23;;;;;;;10.18;4.97;;;;;;;3.50;65.30;102131.59;5052590;28;20053;-65
2022/04/17 02:08:51;;;;;;;8.68;4.55;;;;;;;3.44;65.32;102129.66;5052997;28;20067;-66
2022/04/17 02:11:17;;;;;;;11.80;5.50;;;;;;;3.40;65.58;102133.00;5053494;28;20037;-65
2022/04/17 02:13:42;;;;;;;10.43;4.93;;;;;;;3.40;65.48;102130.38;5053614;28;20036;-65
2022/04/17 02:16:08;;;;;;;8.30;4.35;;;;;;;3.34;65.64;102124.97;5036065;28;20043;-64
2022/04/17 02:18:33;;;;;;;8.18;4.70;;;;;;;3.18;66.23;102129.59;5062995;28;20396;-63
2022/04/17 02:20:59;;;;;;;7.40;4.47;;;;;;;3.22;65.83;102121.09;5053847;28;20064;-64
2022/04/17 02:23:25;;;;;;;9.55;4.70;;;;;;;3.25;65.78;102124.63;5062769;28;20120;-64
2022/04/17 02:25:50;;;;;;;9.57;4.32;;;;;;;3.24;65.54;102112.50;5073341;28;20434;-64
2022/04/17 02:28:16;;;;;;;9.23;5.15;;;;;;;3.22;65.50;102115.00;5057638;28;20362;-64
2022/04/17 02:30:42;;;;;;;9.00;5.53;;;;;;;3.22;65.44;102109.81;5069891;28;20443;-63
2022/04/17 02:33:08;;;;;;;10.75;5.32;;;;;;;3.33;64.79;102105.00;5062744;28;20108;-64
2022/04/17 02:35:34;;;;;;;8.88;4.30;;;;;;;3.34;64.39;102099.84;5062082;28;20086;-64
2022/04/17 02:37:59;;;;;;;8.07;4.60;;;;;;;3.39;64.37;102100.94;5073271;28;20044;-64
2022/04/17 02:40:25;;;;;;;7.63;4.15;;;;;;;3.46;63.91;102104.59;5058057;28;20495;-64
2022/04/17 02:42:53;;;;;;;7.28;4.05;;;;;;;3.53;63.88;102095.31;5074332;28;20119;-64
2022/04/17 02:45:21;;;;;;;7.05;4.13;;;;;;;3.56;63.93;102090.22;5076467;28;20036;-64
2022/04/17 02:47:48;;;;;;;6.18;3.65;;;;;;;3.55;63.63;102102.34;5061279;28;20029;-64
2022/04/17 02:50:15;;;;;;;7.72;4.97;;;;;;;3.56;63.70;102087.63;5059800;28;20036;-63
2022/04/17 02:52:42;;;;;;;7.15;4.13;;;;;;;3.54;63.54;102092.75;5047901;28;20041;-64
2022/04/17 02:55:08;;;;;;;9.73;5.20;;;;;;;3.56;63.77;102093.72;5073023;28;20369;-64
2022/04/17 02:57:34;;;;;;;9.52;4.57;;;;;;;3.60;63.90;102092.09;5064137;28;20376;-64
2022/04/17 03:00:00;;;;;;;10.98;5.20;;;;;;;3.60;63.83;102094.69;5062767;28;20036;-63
2022/04/17 03:07:55;;;;;;;7.20;4.25;;;;;;;3.41;64.48;102080.19;5077417;28;20063;-64
2022/04/17 03:10:21;;;;;;;9.45;5.22;;;;;;;3.28;64.70;102083.19;5060511;28;20072;-64
2022/04/17 03:12:46;;;;;;;8.43;5.00;;;;;;;3.18;64.98;102082.84;5072047;28;20487;-64
2022/04/17 03:15:12;;;;;;;10.68;5.63;;;;;;;3.15;65.17;102082.75;5075206;28;20444;-63
2022/04/17 03:17:38;;;;;;;12.32;6.47;;;;;;;3.10;65.50;102089.47;5071753;28;20037;-64
2022/04/17 03:20:05;;;;;;;20.05;8.85;;;;;;;3.06;65.19;102076.34;5056308;28;20052;-64
2022/04/17 03:22:32;;;;;;;19.38;8.07;;;;;;;3.09;65.53;102079.06;5056379;28;20041;-64
2022/04/17 03:25:00;;;;;;;18.35;8.45;;;;;;;3.14;65.33;102086.16;5073339;28;20020;-64
2022/04/17 03:27:25;;;;;;;16.40;7.68;;;;;;;3.24;65.27;102081.31;5075426;28;20450;-63
2022/04/17 03:29:51;;;;;;;15.27;7.18;;;;;;;3.18;65.34;102077.66;5064247;28;20033;-64
2022/04/17 03:32:16;;;;;;;17.38;9.27;;;;;;;3.17;65.43;102081.09;5060166;28;20524;-64
2022/04/17 03:34:42;;;;;;;14.18;7.53;;;;;;;3.14;65.61;102075.78;5056276;28;20029;-63
2022/04/17 03:37:08;;;;;;;14.18;8.20;;;;;;;3.09;65.63;102066.06;5072026;28;20064;-65
2022/04/17 03:39:33;;;;;;;17.77;9.25;;;;;;;3.04;66.05;102071.09;5056403;28;20154;-64
2022/04/17 03:41:59;;;;;;;15.13;8.60;;;;;;;3.00;66.48;102071.81;5068596;28;20127;-63
2022/04/17 03:44:24;;;;;;;14.20;7.93;;;;;;;3.01;66.22;102067.50;5071277;28;20392;-63
2022/04/17 03:46:51;;;;;;;15.93;8.30;;;;;;;3.02;66.33;102056.28;5069616;28;20122;-63
2022/04/17 03:49:17;;;;;;;15.52;7.68;;;;;;;3.02;66.33;102062.34;5076156;28;20029;-63
2022/04/17 03:51:42;;;;;;;12.18;7.10;;;;;;;3.05;66.34;102065.06;5058369;28;20120;-63
2022/04/17 03:54:07;;;;;;;11.00;5.75;;;;;;;3.12;66.46;102056.66;5071857;28;20483;-63
2022/04/17 03:56:33;;;;;;;11.68;6.18;;;;;;;3.26;65.85;102069.25;5060722;28;20041;-63
2022/04/17 03:59:01;;;;;;;10.35;6.50;;;;;;;3.34;65.79;102063.47;5060121;28;20062;-63
2022/04/17 04:01:27;;;;;;;12.32;6.18;;;;;;;3.43;65.32;102061.22;5061502;28;20041;-63
2022/04/17 04:03:54;;;;;;;11.65;5.72;;;;;;;3.63;65.18;102056.69;5037414;28;20041;-62
2022/04/17 04:06:20;;;;;;;10.70;5.40;;;;;;;3.87;64.64;102051.41;5072993;28;20036;-63
2022/04/17 04:08:48;;;;;;;8.00;5.22;;;;;;;4.07;64.09;102054.66;5075083;28;20046;-62
2022/04/17 04:11:14;;;;;;;9.18;5.55;;;;;;;4.13;63.52;102047.03;5056865;28;20058;-63
2022/04/17 04:13:41;;;;;;;9.95;5.20;;;;;;;4.19;63.67;102042.03;5066528;28;20424;-64
2022/04/17 04:16:07;;;;;;;12.38;6.38;;;;;;;4.32;63.38;102052.81;5055326;28;20436;-65
2022/04/17 04:18:32;;;;;;;11.95;6.88;;;;;;;4.34;63.16;102056.31;5055234;28;20057;-65
2022/04/17 04:20:58;;;;;;;12.45;7.20;;;;;;;4.29;63.25;102053.59;5055499;28;20079;-65
2022/04/17 04:23:23;;;;;;;12.50;7.10;;;;;;;4.22;63.74;102053.34;5055574;28;20036;-64
2022/04/17 04:25:48;;;;;;;13.55;7.50;;;;;;;4.37;63.37;102061.63;5056163;28;20074;-65
2022/04/17 04:30:58;;;;;;;12.05;6.15;;;;;;;4.66;62.57;102068.56;5054732;28;20056;-65
2022/04/17 04:33:23;;;;;;;10.93;5.82;;;;;;;4.79;62.12;102058.50;5037503;28;20037;-64
2022/04/17 04:35:48;;;;;;;9.63;5.57;;;;;;;5.00;61.99;102059.13;5055472;28;20044;-63
2022/04/17 04:38:14;;;;;;;8.90;5.30;;;;;;;5.19;61.25;102063.13;5052936;28;20116;-65
2022/04/17 04:40:40;;;;;;;8.68;4.82;;;;;;;5.30;60.66;102072.09;5061634;28;20045;-64
2022/04/17 04:43:05;;;;;;;8.60;4.40;;;;;;;5.35;60.25;102067.91;5054845;28;20021;-64
2022/04/17 04:48:15;;;;;;;6.78;4.10;;;;;;;5.35;60.12;102059.22;5054788;28;20058;-64
2022/04/17 04:50:40;;;;;;;8.43;4.38;;;;;;;5.36;60.29;102056.66;5054878;28;20493;-64
2022/04/17 04:53:06;;;;;;;6.25;3.92;;;;;;;5.44;60.11;102064.66;5056775;28;20029;-63
2022/04/17 04:55:31;;;;;;;8.50;5.35;;;;;;;5.48;59.81;102057.81;5058365;28;20559;-64
2022/04/17 04:57:57;;;;;;;8.70;5.28;;;;;;;5.49;59.80;102062.19;5053160;28;20124;-64
2022/04/17 05:00:23;;;;;;;9.20;4.90;;;;;;;5.59;59.65;102062.47;5054284;28;20455;-64
2022/04/17 05:02:48;;;;;;;9.57;5.47;;;;;;;5.71;59.29;102061.88;5054970;28;20060;-63
2022/04/17 05:05:14;;;;;;;10.20;5.80;;;;;;;5.75;58.92;102055.03;5051556;28;20127;-63
2022/04/17 05:07:40;;;;;;;12.32;5.68;;;;;;;5.60;59.27;102056.41;5053934;28;20503;-63
2022/04/17 05:10:06;;;;;;;9.07;5.30;;;;;;;5.56;59.27;102067.59;5052549;28;20068;-62
2022/04/17 05:12:32;;;;;;;8.60;5.43;;;;;;;5.51;59.12;102061.38;5050002;28;20041;-64
2022/04/17 05:14:58;;;;;;;8.82;5.38;;;;;;;5.52;59.26;102055.31;5051992;28;20024;-64
2022/04/17 05:17:24;;;;;;;8.07;4.70;;;;;;;5.48;59.17;102052.59;5052084;28;20040;-63
2022/04/17 05:19:50;;;;;;;9.23;4.93;;;;;;;5.34;59.36;102047.00;5053203;28;20056;-64
2022/04/17 05:22:16;;;;;;;11.45;6.00;;;;;;;5.24;59.70;102048.50;5052669;28;20029;-64
2022/04/17 05:24:45;;;;;;;10.63;5.88;;;;;;;5.23;59.51;102046.75;5052717;28;20564;-63
2022/04/17 05:27:12;;;;;;;11.90;5.18;;;;;;;5.31;59.63;102054.78;5047176;28;20071;-63
2022/04/17 05:29:39;;;;;;;9.70;5.80;;;;;;;5.39;59.38;102048.91;5052650;28;20052;-64
2022/04/17 05:32:04;;;;;;;14.73;6.72;;;;;;;5.47;59.07;102049.13;5052122;28;20090;-62
2022/04/17 05:34:30;;;;;;;9.73;5.65;;;;;;;5.65;58.87;102046.06;5052784;28;20041;-64
2022/04/17 05:36:56;;;;;;;9.57;5.45;;;;;;;5.74;58.67;102050.63;5051093;28;20041;-63
2022/04/17 05:39:22;;;;;;;10.30;5.50;;;;;;;5.86;58.18;102043.09;5051660;28;20040;-63
2022/04/17 05:41:48;;;;;;;10.38;6.03;;;;;;;5.99;57.94;102044.34;5050768;28;20041;-64
2022/04/17 05:44:14;;;;;;;12.35;6.75;;;;;;;6.08;57.52;102042.81;5051062;28;20040;-65
2022/04/17 05:46:41;;;;;;;14.00;7.57;;;;;;;6.17;57.56;102043.00;5052365;28;20049;-64
2022/04/17 05:49:07;;;;;;;17.30;8.73;;;;;;;6.26;57.14;102036.22;5051645;28;20041;-65
2022/04/17 05:51:34;;;;;;;23.27;11.68;;;;;;;6.34;57.09;102035.59;5053182;28;20040;-64
2022/04/17 05:54:01;;;;;;;26.35;13.60;;;;;;;6.40;57.43;102040.03;5052267;28;20041;-64
2022/04/17 05:56:28;;;;;;;27.25;13.85;;;;;;;6.55;57.17;102037.75;5052645;28;20078;-64
2022/04/17 05:58:54;;;;;;;20.13;11.13;;;;;;;6.58;57.14;102040.44;5052314;28;20052;-65
2022/04/17 06:01:19;;;;;;;21.27;12.02;;;;;;;6.63;57.27;102035.31;5052196;28;20029;-64
2022/04/17 06:03:45;;;;;;;20.48;11.55;;;;;;;6.72;57.11;102045.94;5052212;28;20033;-64
2022/04/17 06:06:10;;;;;;;11.35;6.72;;;;;;;6.87;56.62;102042.78;5051715;28;20106;-65
2022/04/17 06:08:36;;;;;;;14.77;8.55;;;;;;;7.15;55.95;102033.72;5052118;28;20090;-63
2022/04/17 06:11:01;;;;;;;8.65;5.15;;;;;;;7.30;55.32;102040.94;5051684;28;20068;-63
2022/04/17 06:13:27;;;;;;;9.38;5.78;;;;;;;7.46;54.71;102040.41;5052526;28;20036;-63
2022/04/17 06:15:52;;;;;;;7.28;4.07;;;;;;;7.55;54.22;102040.56;5052161;28;20153;-64
2022/04/17 06:18:18;;;;;;;6.28;3.20;;;;;;;7.71;53.19;102038.19;5050265;28;20041;-62
2022/04/17 06:20:44;;;;;;;3.85;2.03;;;;;;;7.86;52.91;102030.59;5052292;28;20041;-63
2022/04/17 06:23:10;;;;;;;4.53;2.00;;;;;;;7.99;52.51;102035.16;5051150;28;20095;-64
2022/04/17 06:25:35;;;;;;;3.28;2.00;;;;;;;8.10;52.35;102030.97;5053307;28;20116;-63
2022/04/17 06:28:01;;;;;;;4.28;2.30;;;;;;;8.08;52.32;102035.28;5051622;28;20057;-64
2022/04/17 06:30:27;;;;;;;3.47;2.30;;;;;;;8.16;52.04;102038.03;5052054;28;20037;-63
2022/04/17 06:32:52;;;;;;;5.07;2.60;;;;;;;8.22;52.10;102032.88;5056724;28;20056;-64
2022/04/17 06:35:18;;;;;;;4.47;3.10;;;;;;;8.31;51.95;102027.78;5051262;28;20423;-65
2022/04/17 06:37:48;;;;;;;4.47;2.55;;;;;;;8.41;51.05;102030.53;5052763;28;20480;-64
2022/04/17 06:40:16;;;;;;;5.93;2.75;;;;;;;8.58;51.22;102024.66;5052178;28;20025;-64
2022/04/17 06:42:42;;;;;;;4.57;2.67;;;;;;;8.82;50.79;102028.47;5052834;28;20036;-64
2022/04/17 06:45:08;;;;;;;3.90;2.55;;;;;;;9.05;50.08;102026.94;5052922;28;20139;-64
2022/04/17 06:47:33;;;;;;;3.53;2.03;;;;;;;9.22;49.51;102021.03;5052845;28;20441;-63
2022/04/17 06:49:59;;;;;;;3.78;2.00;;;;;;;9.36;48.63;102022.03;5052194;28;20052;-63
2022/04/17 06:52:24;;;;;;;4.18;2.13;;;;;;;9.52;47.62;102025.66;5052158;28;20064;-62
2022/04/17 06:54:49;;;;;;;2.65;1.42;;;;;;;9.48;47.16;102019.50;5050771;28;20029;-62
2022/04/17 06:57:15;;;;;;;2.38;1.17;;;;;;;9.66;46.51;102023.19;5052122;28;20033;-62
2022/04/17 06:59:41;;;;;;;2.65;1.30;;;;;;;9.70;46.27;102024.97;5051867;28;20047;-63
2022/04/17 07:02:06;;;;;;;2.00;1.30;;;;;;;9.83;46.25;102029.44;5051867;28;20033;-63
2022/04/17 07:04:32;;;;;;;1.83;1.05;;;;;;;9.82;45.98;102020.69;5052969;28;20041;-66
2022/04/17 07:06:57;;;;;;;4.47;1.83;;;;;;;9.80;45.88;102025.03;5051573;28;20037;-65
2022/04/17 07:09:23;;;;;;;4.70;1.85;;;;;;;9.90;45.89;102026.00;5051553;28;20041;-64
2022/04/17 07:11:48;;;;;;;2.78;2.00;;;;;;;9.82;45.89;102025.06;5051306;28;20033;-64
2022/04/17 07:14:15;;;;;;;3.05;1.55;;;;;;;9.90;45.82;102026.00;5052137;28;20036;-64
2022/04/17 07:16:43;;;;;;;3.42;1.60;;;;;;;10.10;45.00;102026.13;5050158;28;20045;-64
2022/04/17 07:19:08;;;;;;;2.67;1.20;;;;;;;10.21;44.62;102032.28;5051098;28;20545;-64
2022/04/17 07:21:34;;;;;;;3.88;1.50;;;;;;;10.36;44.30;102028.91;5052354;28;20045;-64
2022/04/17 07:23:59;;;;;;;4.28;1.92;;;;;;;10.42;44.22;102026.34;5055280;28;20041;-64
2022/04/17 07:26:25;;;;;;;3.10;1.50;;;;;;;10.52;44.00;102029.88;5055810;28;20033;-66
2022/04/17 07:28:50;;;;;;;2.88;1.73;;;;;;;10.72;43.59;102036.09;5056015;28;20031;-66
2022/04/17 07:31:15;;;;;;;3.13;1.30;;;;;;;10.89;43.20;102025.66;5056525;28;20039;-66
2022/04/17 07:33:41;;;;;;;1.65;0.90;;;;;;;10.90;42.90;102032.69;5056542;28;20385;-66
2022/04/17 07:36:06;;;;;;;1.73;0.80;;;;;;;11.09;42.50;102031.88;5056779;28;20388;-67
2022/04/17 07:38:32;;;;;;;1.85;0.95;;;;;;;11.09;42.14;102031.88;5059499;28;20169;-64
2022/04/17 07:40:57;;;;;;;2.63;1.10;;;;;;;10.91;41.70;102029.16;5056836;28;20157;-65
2022/04/17 07:43:22;;;;;;;2.13;0.80;;;;;;;10.94;41.32;102030.94;5061232;28;20040;-64
2022/04/17 07:45:48;;;;;;;1.73;0.75;;;;;;;11.02;40.48;102019.56;5058640;28;20065;-65
2022/04/17 07:48:13;;;;;;;1.55;0.60;;;;;;;11.09;40.99;102021.34;5056517;28;20395;-64
2022/04/17 07:50:39;;;;;;;1.13;0.60;;;;;;;11.19;40.78;102023.97;5054245;28;20523;-64
2022/04/17 07:53:04;;;;;;;1.45;0.90;;;;;;;11.09;40.17;102026.59;5064309;28;20039;-65
2022/04/17 07:55:30;;;;;;;1.48;0.60;;;;;;;10.86;39.76;102015.13;5057674;28;20040;-65
2022/04/17 07:58:12;;;;;;;1.55;0.68;;;;;;;11.00;39.80;102021.28;5052762;28;20032;-64
2022/04/17 08:00:57;;;;;;;2.00;0.88;;;;;;;11.05;39.67;102029.19;5054822;28;20029;-65
2022/04/17 08:03:45;;;;;;;1.77;0.55;;;;;;;11.07;39.02;102012.56;5055785;28;20099;-65
2022/04/17 08:06:12;;;;;;;1.42;0.55;;;;;;;11.25;39.09;102016.97;5053650;28;20033;-65
2022/04/17 08:08:39;;;;;;;1.67;0.65;;;;;;;11.08;37.94;102021.31;5053711;28;20041;-65
2022/04/17 08:11:05;;;;;;;1.67;0.50;;;;;;;11.06;37.95;102013.44;5055285;28;20041;-64
2022/04/17 08:13:31;;;;;;;1.02;0.45;;;;;;;10.88;37.38;102021.25;5055868;28;20082;-65
2022/04/17 08:15:56;;;;;;;1.27;0.50;;;;;;;10.91;37.94;102016.03;5055862;28;20055;-64
2022/04/17 08:18:22;;;;;;;0.80;0.38;;;;;;;10.99;37.68;102013.41;5055616;28;20045;-64
2022/04/17 08:20:48;;;;;;;1.25;0.57;;;;;;;10.99;37.76;102010.78;5055607;28;20521;-64
2022/04/17 08:23:13;;;;;;;1.92;0.50;;;;;;;10.91;36.43;102012.50;5055621;28;20028;-63
2022/04/17 08:25:39;;;;;;;1.45;0.75;;;;;;;11.01;37.62;102011.66;5055630;28;20037;-63
2022/04/17 08:28:05;;;;;;;0.98;0.45;;;;;;;11.19;36.79;102014.31;5054338;28;20037;-65
2022/04/17 08:30:32;;;;;;;1.55;0.50;;;;;;;11.22;36.34;102008.19;5055390;28;20041;-64
2022/04/17 08:32:59;;;;;;;1.50;0.70;;;;;;;11.41;35.99;102006.44;5055302;28;20092;-64
2022/04/17 08:35:24;;;;;;;1.85;0.52;;;;;;;11.41;35.48;102006.44;5055250;28;20033;-63
2022/04/17 08:37:52;;;;;;;1.15;0.55;;;;;;;11.38;35.63;102002.09;5055339;28;20033;-64
2022/04/17 08:40:17;;;;;;;1.35;0.60;;;;;;;11.54;35.98;101998.56;5055183;28;20455;-64
2022/04/17 08:42:44;;;;;;;1.60;0.80;;;;;;;11.59;36.04;102002.06;5055524;28;20025;-64
2022/04/17 08:45:11;;;;;;;0.90;0.60;;;;;;;11.53;36.05;101994.19;5054020;28;20392;-65
2022/04/17 08:47:39;;;;;;;1.45;0.82;;;;;;;11.68;36.41;102000.31;5055272;28;20373;-64
2022/04/17 08:50:08;;;;;;;1.75;0.85;;;;;;;11.72;36.38;101994.16;5055021;28;20037;-63
2022/04/17 08:52:34;;;;;;;1.92;0.77;;;;;;;11.84;36.80;101994.19;5055105;28;20460;-65
2022/04/17 08:55:01;;;;;;;0.93;0.50;;;;;;;11.91;36.80;101987.16;5053870;28;20032;-65
2022/04/17 08:57:27;;;;;;;0.88;0.50;;;;;;;11.82;37.25;101983.63;5054837;28;20037;-64
2022/04/17 08:59:53;;;;;;;1.77;0.60;;;;;;;11.82;37.09;101985.41;5053727;28;20044;-64
2022/04/17 09:02:19;;;;;;;2.22;0.70;;;;;;;11.73;36.99;101988.91;5053626;28;20037;-64
2022/04/17 09:04:45;;;;;;;1.40;0.80;;;;;;;11.67;36.94;101983.66;5054503;28;20056;-64
2022/04/17 09:07:11;;;;;;;1.85;0.70;;;;;;;11.71;35.78;101974.00;5054802;28;20029;-64
2022/04/17 09:09:55;;;;;;;1.63;0.70;;;;;;;11.57;35.63;101985.41;5053489;28;20040;-64
2022/04/17 09:12:26;;;;;;;2.00;0.90;;;;;;;11.69;36.05;101975.72;5054834;28;20512;-64
2022/04/17 09:14:55;;;;;;;1.92;0.77;;;;;;;11.69;35.93;101976.63;5054926;28;20039;-65
2022/04/17 09:17:29;;;;;;;2.30;0.80;;;;;;;11.72;35.29;101971.34;5054566;28;20033;-65
2022/04/17 09:19:54;;;;;;;1.40;0.70;;;;;;;11.89;36.25;101968.75;5054841;28;20057;-65
2022/04/17 09:22:20;;;;;;;1.50;0.75;;;;;;;11.80;35.06;101964.31;5054575;28;20045;-64
2022/04/17 09:24:45;;;;;;;1.95;0.98;;;;;;;11.74;34.97;101959.06;5054915;28;20025;-64
2022/04/17 09:27:11;;;;;;;3.40;1.60;;;;;;;11.70;34.95;101956.44;5054626;28;20503;-64
2022/04/17 09:29:38;;;;;;;2.92;1.40;;;;;;;11.64;34.78;101959.06;5054309;28;20120;-62
2022/04/17 09:32:11;;;;;;;2.10;0.80;;;;;;;11.74;34.70;101960.84;5053969;28;20033;-64
2022/04/17 09:34:50;;;;;;;2.30;0.85;;;;;;;11.90;34.00;101948.53;5054317;28;20040;-63
2022/04/17 09:37:20;;;;;;;2.28;0.80;;;;;;;11.97;34.28;101948.53;5053108;28;20035;-64
2022/04/17 09:39:47;;;;;;;4.10;1.33;;;;;;;11.93;34.14;101930.97;5054149;28;20457;-64
2022/04/17 09:42:13;;;;;;;1.73;0.90;;;;;;;11.84;34.61;101930.97;5054111;28;20400;-63
2022/04/17 09:44:46;;;;;;;2.60;0.70;;;;;;;11.97;33.45;101943.25;5054450;28;20120;-65
2022/04/17 09:47:20;;;;;;;;;;;;;;;11.75;33.55;101936.25;5054389;28;20032;-64
2022/04/17 09:49:58;;;;;;;;;;;;;;;11.68;34.40;101932.72;5054263;28;19952;-64
2022/04/17 09:52:29;;;;;;;2.47;0.80;;;;;;;11.96;33.71;101923.03;5054028;28;19919;-63
2022/04/17 09:54:55;;;;;;;3.50;1.00;;;;;;;12.11;33.70;101911.59;5053748;28;20033;-64
2022/04/17 09:57:30;;;;;;;4.47;0.88;;;;;;;12.23;32.85;101902.75;5053775;28;20033;-64
2022/04/17 09:59:57;;;;;;;3.80;0.90;;;;;;;12.14;33.57;101905.44;5052549;28;20086;-64
2022/04/17 10:02:25;;;;;;;1.73;0.85;;;;;;;12.45;33.39;101899.16;5052927;28;20439;-63
2022/04/17 10:04:51;;;;;;;2.47;0.70;;;;;;;12.31;33.41;101899.22;5053852;28;20037;-65
2022/04/17 10:07:22;;;;;;;2.03;0.80;;;;;;;12.40;32.64;101895.63;5053723;28;20037;-63
2022/04/17 10:09:48;;;;;;;2.28;0.90;;;;;;;12.43;32.67;101879.81;5053934;28;20131;-63
2022/04/17 10:12:18;;;;;;;2.58;0.85;;;;;;;12.62;33.15;101891.13;5053536;28;20536;-65
2022/04/17 10:14:47;;;;;;;2.88;0.80;;;;;;;12.48;32.59;101890.34;5053763;28;20037;-64
2022/04/17 10:17:14;;;;;;;1.73;0.65;;;;;;;12.55;32.96;101887.66;5053669;28;20041;-63
2022/04/17 10:19:42;;;;;;;2.47;0.77;;;;;;;12.74;32.60;101869.97;5053689;28;20132;-63
2022/04/17 10:22:10;;;;;;;1.17;0.55;;;;;;;12.67;31.82;101868.25;5053137;28;20051;-64
2022/04/17 10:24:39;;;;;;;1.58;0.70;;;;;;;12.78;32.22;101863.78;5053397;28;20140;-64
2022/04/17 10:27:06;;;;;;;2.15;0.70;;;;;;;12.99;32.12;101861.84;5053616;28;20036;-64
2022/04/17 10:29:41;;;;;;;1.52;0.77;;;;;;;12.92;30.67;101853.09;5053375;28;20487;-64
2022/04/17 10:32:31;;;;;;;1.65;0.60;;;;;;;12.86;30.92;101858.44;5053378;28;20021;-63
2022/04/17 10:35:05;;;;;;;2.00;0.60;;;;;;;12.95;31.02;101855.72;5053645;28;20033;-64
2022/04/17 10:37:31;;;;;;;1.08;0.38;;;;;;;12.81;30.14;101847.06;5053329;28;20032;-64
2022/04/17 10:39:57;;;;;;;1.30;0.60;;;;;;;12.79;30.92;101839.16;5053405;28;20116;-64
2022/04/17 10:42:36;;;;;;;1.77;0.60;;;;;;;12.96;30.01;101846.91;5053382;28;20098;-64
2022/04/17 10:45:08;;;;;;;2.00;0.50;;;;;;;13.05;30.52;101838.94;5053697;28;20084;-64
2022/04/17 10:47:34;;;;;;;1.25;0.50;;;;;;;13.23;30.61;101834.41;5052970;28;20044;-64
2022/04/17 10:50:07;;;;;;;1.48;0.55;;;;;;;13.01;28.45;101821.41;5053363;28;20041;-64
2022/04/17 10:52:33;;;;;;;1.65;0.60;;;;;;;13.02;28.32;101833.69;5053315;28;20025;-64
2022/04/17 10:55:14;;;;;;;1.65;0.73;;;;;;;12.93;29.23;101820.59;5053264;28;20037;-62
2022/04/17 10:57:48;;;;;;;2.83;1.02;;;;;;;13.22;29.45;101827.34;5055982;28;20021;-63
2022/04/17 11:00:38;;;;;;;1.45;0.60;;;;;;;13.11;27.52;101826.56;5057314;28;20118;-63
2022/04/17 11:03:11;;;;;;;1.80;0.63;;;;;;;13.06;29.01;101809.03;5055932;28;20032;-63
2022/04/17 11:08:25;;;;;;;2.78;0.60;;;;;;;13.22;29.43;101815.03;5057422;28;20498;-63
2022/04/17 11:11:00;;;;;;;2.28;0.98;;;;;;;13.27;29.28;101807.09;5057016;28;20380;-63
2022/04/17 11:13:26;;;;;;;2.15;0.68;;;;;;;13.40;29.93;101806.06;5056857;28;20033;-63
2022/04/17 11:15:55;;;;;;;1.38;0.65;;;;;;;13.52;29.27;101792.75;5056666;28;20068;-63
2022/04/17 11:18:26;;;;;;;1.80;0.70;;;;;;;13.54;29.18;101795.38;5056854;28;20037;-63
2022/04/17 11:20:53;;;;;;;1.95;0.40;;;;;;;13.48;28.80;101784.88;5056402;28;20060;-63
2022/04/17 11:23:56;;;;;;;1.65;0.63;;;;;;;13.37;27.22;101792.06;5055402;28;20044;-63
2022/04/17 11:26:52;;;;;;;1.52;0.52;;;;;;;13.24;28.43;101784.22;5056539;28;20457;-63
2022/04/17 11:29:38;;;;;;;0.80;0.40;;;;;;;13.20;27.13;101782.47;5055962;28;20461;-64
2022/04/17 11:32:18;;;;;;;4.50;0.80;;;;;;;13.42;28.06;101782.31;5056696;28;20025;-63
2022/04/17 11:34:53;;;;;;;1.35;0.40;;;;;;;13.47;27.70;101784.00;5056424;28;20477;-63
2022/04/17 11:37:22;;;;;;;1.10;0.60;;;;;;;13.46;28.36;101778.75;5056635;28;20040;-63
2022/04/17 11:39:49;;;;;;;1.77;0.65;;;;;;;13.58;28.59;101772.44;5055324;28;20030;-63
2022/04/17 11:42:14;;;;;;;0.88;0.40;;;;;;;13.50;28.35;101798.94;5056236;28;20097;-63
2022/04/17 11:44:41;;;;;;;1.80;0.50;;;;;;;13.51;28.50;101767.22;5056426;28;20441;-63
2022/04/17 11:47:07;;;;;;;1.38;0.57;;;;;;;13.47;27.95;101767.28;5056336;28;20037;-63